Time;durP1;ratioP1;P1;durP2;ratioP2;P2;SDS_P1;SDS_P2;PMS_P1;PMS_P2;Temp;Humidity;BMP_temperature;BMP_pressure;BME280_temperature;BME280_humidity;BME280_pressure;Samples;Min_cycle;Max_cycle;Signal;HPM_P1;HPM_P2
2023/09/12 00:03:02;;;;;;;20.95;13.60;;;;;16.80;96116.00;;;;8315538;28;20259;-66
2023/09/12 00:07:06;;;;;;;25.77;14.70;;;;;16.70;96112.00;;;;8316883;28;20202;-66
2023/09/12 00:11:12;;;;;;;20.92;13.25;;;;;16.70;96111.00;;;;8298781;28;20201;-66
2023/09/12 00:15:15;;;;;;;21.25;14.07;;;;;16.70;96115.00;;;;8308376;28;20543;-66
2023/09/12 00:19:19;;;;;;;24.52;14.40;;;;;16.60;96122.00;;;;8316638;28;20208;-66
2023/09/12 00:23:23;;;;;;;22.27;13.95;;;;;16.60;96109.00;;;;8316195;28;20240;-65
2023/09/12 00:27:32;;;;;;;25.45;14.90;;;;;16.60;96111.00;;;;8315344;28;20201;-66
2023/09/12 00:31:35;;;;;;;24.25;15.15;;;;;16.60;96111.00;;;;8312346;28;20284;-66
2023/09/12 00:35:38;;;;;;;23.45;14.40;;;;;16.60;96103.00;;;;8316409;28;20229;-66
2023/09/12 00:39:42;;;;;;;23.38;14.32;;;;;16.50;96103.00;;;;8315692;28;20289;-66
2023/09/12 00:43:46;;;;;;;22.05;13.65;;;;;16.50;96095.00;;;;8313975;28;20202;-66
2023/09/12 00:47:52;;;;;;;19.63;13.85;;;;;16.40;96087.00;;;;8314563;28;20197;-66
2023/09/12 00:51:58;;;;;;;22.63;14.05;;;;;16.30;96084.00;;;;8314722;28;20193;-66
2023/09/12 00:56:07;;;;;;;20.13;13.82;;;;;16.30;96095.00;;;;8313654;28;20650;-66
2023/09/12 01:00:15;;;;;;;20.98;13.57;;;;;16.20;96085.00;;;;8314388;28;20209;-66
2023/09/12 01:04:21;;;;;;;21.33;13.80;;;;;16.20;96085.00;;;;8314796;28;20221;-66
2023/09/12 01:08:38;;;;;;;23.50;13.65;;;;;16.20;96078.00;;;;8313327;28;20201;-66
2023/09/12 01:12:41;;;;;;;25.38;15.23;;;;;16.10;96071.00;;;;8297237;28;20284;-66
2023/09/12 01:16:46;;;;;;;25.13;15.30;;;;;16.10;96069.00;;;;8313529;28;20255;-66
2023/09/12 01:21:13;;;;;;;22.30;13.93;;;;;16.10;96067.00;;;;8314926;28;20210;-66
2023/09/12 01:25:49;;;;;;;20.67;13.32;;;;;16.00;96075.00;;;;8312133;28;20834;-66
2023/09/12 01:30:03;;;;;;;23.88;14.32;;;;;16.00;96074.00;;;;8296002;28;20284;-66
2023/09/12 01:34:12;;;;;;;19.83;13.48;;;;;15.90;96072.00;;;;8304298;28;20992;-65
2023/09/12 01:38:16;;;;;;;25.23;15.32;;;;;15.90;96068.00;;;;8309167;28;20237;-66
2023/09/12 01:42:23;;;;;;;23.27;14.55;;;;;15.90;96066.00;;;;8317252;28;20836;-67
2023/09/12 01:46:28;;;;;;;34.13;15.10;;;;;15.90;96065.00;;;;8316118;28;20214;-66
2023/09/12 01:50:32;;;;;;;25.08;13.55;;;;;15.80;96069.00;;;;8322106;28;20201;-65
2023/09/12 01:54:36;;;;;;;23.02;14.10;;;;;15.80;96070.00;;;;8318977;28;20201;-66
2023/09/12 01:58:41;;;;;;;23.15;14.27;;;;;15.80;96069.00;;;;8318995;28;20291;-66
2023/09/12 02:02:47;;;;;;;24.25;15.15;;;;;15.80;96066.00;;;;8301285;28;20229;-66
2023/09/12 02:06:53;;;;;;;65.57;13.40;;;;;15.80;96072.00;;;;8321177;28;20938;-66
2023/09/12 02:10:57;;;;;;;192.90;17.67;;;;;15.80;96072.00;;;;8316679;28;20280;-66
2023/09/12 02:15:00;;;;;;;28.55;17.25;;;;;15.80;96070.00;;;;8318870;28;20726;-67
2023/09/12 02:19:07;;;;;;;33.97;17.00;;;;;15.70;96079.00;;;;8319630;28;20225;-66
2023/09/12 02:23:10;;;;;;;29.15;16.98;;;;;15.70;96071.00;;;;8319451;28;20205;-66
2023/09/12 02:27:13;;;;;;;24.08;15.38;;;;;15.60;96073.00;;;;8320156;28;20285;-66
2023/09/12 02:31:16;;;;;;;28.75;17.30;;;;;15.60;96077.00;;;;8318752;28;20225;-66
2023/09/12 02:35:20;;;;;;;26.08;16.17;;;;;15.50;96075.00;;;;8319375;28;20554;-66
2023/09/12 02:39:28;;;;;;;18.45;12.73;;;;;15.50;96075.00;;;;8301331;28;20236;-66
2023/09/12 02:43:33;;;;;;;25.25;15.20;;;;;15.50;96076.00;;;;8318858;28;20209;-65
2023/09/12 02:47:36;;;;;;;22.70;15.23;;;;;15.40;96077.00;;;;8319314;28;20197;-66
2023/09/12 02:51:41;;;;;;;28.40;16.42;;;;;15.40;96082.00;;;;8317620;28;20232;-66
2023/09/12 02:55:46;;;;;;;22.15;14.43;;;;;15.40;96085.00;;;;8316914;28;20197;-66
2023/09/12 02:59:53;;;;;;;23.30;13.70;;;;;15.50;96080.00;;;;8318970;28;20701;-65
2023/09/12 03:03:56;;;;;;;29.42;16.92;;;;;15.50;96084.00;;;;8319452;23;20242;-65
2023/09/12 03:08:01;;;;;;;21.98;13.55;;;;;15.40;96085.00;;;;8293227;28;20272;-65
2023/09/12 03:12:05;;;;;;;25.70;16.00;;;;;15.50;96075.00;;;;8294840;28;20199;-66
2023/09/12 03:16:11;;;;;;;26.77;16.25;;;;;15.50;96086.00;;;;8294760;28;20198;-66
2023/09/12 03:20:14;;;;;;;27.73;16.70;;;;;15.40;96090.00;;;;8298141;28;20291;-66
2023/09/12 03:24:21;;;;;;;31.85;16.73;;;;;15.40;96079.00;;;;8293723;28;21038;-66
2023/09/12 03:28:24;;;;;;;27.80;15.57;;;;;15.30;96081.00;;;;8292259;28;20312;-66
2023/09/12 03:32:27;;;;;;;32.42;17.73;;;;;15.30;96078.00;;;;8287763;28;20190;-65
2023/09/12 03:36:31;;;;;;;28.98;17.25;;;;;15.30;96078.00;;;;8272701;28;20240;-65
2023/09/12 03:40:36;;;;;;;32.28;16.90;;;;;15.30;96068.00;;;;8287345;28;20202;-65
2023/09/12 03:44:40;;;;;;;26.27;15.35;;;;;15.30;96072.00;;;;8288451;28;20202;-65
2023/09/12 03:48:43;;;;;;;36.00;17.83;;;;;15.20;96061.00;;;;8292929;28;20197;-65
2023/09/12 03:52:49;;;;;;;34.10;18.65;;;;;15.20;96074.00;;;;8285747;28;20198;-66
2023/09/12 03:56:55;;;;;;;34.65;18.27;;;;;15.10;96078.00;;;;8286680;28;20321;-66
2023/09/12 04:00:58;;;;;;;26.13;15.65;;;;;15.10;96076.00;;;;8284650;28;20194;-66
2023/09/12 04:05:02;;;;;;;28.85;16.25;;;;;15.10;96078.00;;;;8253337;28;20290;-66
2023/09/12 04:09:06;;;;;;;29.67;15.85;;;;;15.00;96076.00;;;;8230587;28;20191;-65
2023/09/12 04:13:11;;;;;;;28.10;15.90;;;;;15.00;96075.00;;;;8256837;28;20226;-65
2023/09/12 04:17:14;;;;;;;30.83;17.52;;;;;15.00;96080.00;;;;8255352;28;20706;-66
2023/09/12 04:21:17;;;;;;;36.42;19.42;;;;;14.90;96077.00;;;;8255759;28;20202;-66
2023/09/12 04:25:26;;;;;;;33.55;18.23;;;;;14.90;96082.00;;;;8260245;28;20260;-65
2023/09/12 04:29:35;;;;;;;31.48;17.58;;;;;14.90;96084.00;;;;8255594;28;20236;-65
2023/09/12 04:33:38;;;;;;;27.52;15.55;;;;;14.80;96087.00;;;;8262362;28;20203;-65
2023/09/12 04:37:43;;;;;;;26.42;14.80;;;;;14.80;96091.00;;;;8267883;28;20288;-65
2023/09/12 04:41:49;;;;;;;29.63;15.65;;;;;14.80;96080.00;;;;8253996;28;20289;-66
2023/09/12 04:45:53;;;;;;;30.70;17.80;;;;;14.80;96081.00;;;;8263088;28;20686;-65
2023/09/12 04:49:57;;;;;;;33.60;19.02;;;;;14.80;96081.00;;;;8260033;28;20475;-65
2023/09/12 04:54:04;;;;;;;34.88;19.25;;;;;14.80;96078.00;;;;8266304;28;20301;-65
2023/09/12 04:58:12;;;;;;;37.65;19.00;;;;;14.80;96080.00;;;;8259030;28;20218;-65
2023/09/12 05:02:18;;;;;;;32.25;18.77;;;;;14.90;96090.00;;;;8262120;28;20229;-66
2023/09/12 05:06:21;;;;;;;32.60;18.23;;;;;15.00;96091.00;;;;8265131;28;20778;-65
2023/09/12 05:10:25;;;;;;;32.58;15.88;;;;;15.10;96079.00;;;;8262643;28;20726;-65
2023/09/12 05:14:30;;;;;;;38.53;18.38;;;;;15.10;96086.00;;;;8255463;28;20273;-65
2023/09/12 05:18:37;;;;;;;34.33;19.38;;;;;15.20;96087.00;;;;8255972;28;20308;-66
2023/09/12 05:22:44;;;;;;;41.15;17.55;;;;;15.30;96092.00;;;;8264602;28;20202;-65
2023/09/12 05:26:47;;;;;;;33.60;18.23;;;;;15.40;96087.00;;;;8252040;28;20198;-66
2023/09/12 05:30:55;;;;;;;28.08;16.60;;;;;15.50;96090.00;;;;8254606;28;20294;-66
2023/09/12 05:34:59;;;;;;;31.88;15.43;;;;;15.60;96091.00;;;;8257733;28;20198;-66
2023/09/12 05:39:22;;;;;;;29.83;16.42;;;;;15.70;96092.00;;;;8250859;28;20687;-66
2023/09/12 05:43:25;;;;;;;32.33;17.23;;;;;15.90;96091.00;;;;8259321;28;20203;-65
2023/09/12 05:47:37;;;;;;;26.10;15.27;;;;;16.00;96102.00;;;;8262446;28;20203;-65
2023/09/12 05:51:42;;;;;;;25.95;14.07;;;;;16.10;96101.00;;;;8251039;28;20210;-65
2023/09/12 05:55:48;;;;;;;22.35;14.30;;;;;16.30;96109.00;;;;8253212;28;20951;-64
2023/09/12 05:59:51;;;;;;;26.00;15.48;;;;;16.40;96110.00;;;;8234868;28;21436;-65
2023/09/12 06:03:56;;;;;;;22.15;15.00;;;;;16.60;96112.00;;;;8251041;28;20587;-65
2023/09/12 06:08:00;;;;;;;22.65;13.52;;;;;16.80;96112.00;;;;8245080;28;20207;-66
2023/09/12 06:12:05;;;;;;;21.08;15.10;;;;;16.90;96116.00;;;;8237890;28;20317;-65
2023/09/12 06:16:08;;;;;;;22.48;15.30;;;;;17.10;96108.00;;;;8235611;28;20226;-65
2023/09/12 06:20:12;;;;;;;28.20;16.55;;;;;17.30;96108.00;;;;8253777;28;20350;-65
2023/09/12 06:24:21;;;;;;;26.92;16.10;;;;;17.50;96107.00;;;;8240179;28;20290;-65
2023/09/12 06:28:28;;;;;;;24.70;14.80;;;;;17.70;96107.00;;;;8250623;28;20202;-66
2023/09/12 06:32:31;;;;;;;23.05;15.32;;;;;17.90;96110.00;;;;8249557;28;20214;-65
2023/09/12 06:36:39;;;;;;;27.05;16.23;;;;;18.10;96116.00;;;;8250047;28;20285;-65
2023/09/12 06:40:43;;;;;;;27.85;19.35;;;;;18.30;96114.00;;;;8242593;28;20292;-65
2023/09/12 06:44:47;;;;;;;37.45;21.25;;;;;18.60;96119.00;;;;8245682;28;20203;-65
2023/09/12 06:48:51;;;;;;;37.55;21.60;;;;;18.70;96121.00;;;;8245551;28;20205;-65
2023/09/12 06:52:54;;;;;;;33.85;20.10;;;;;18.90;96129.00;;;;8239662;28;20254;-65
2023/09/12 06:57:02;;;;;;;27.80;18.83;;;;;19.20;96126.00;;;;8244285;28;20210;-65
2023/09/12 07:01:08;;;;;;;30.20;19.88;;;;;19.40;96134.00;;;;8226291;28;20322;-65
2023/09/12 07:05:12;;;;;;;28.90;19.80;;;;;19.70;96128.00;;;;8244895;28;20238;-66
2023/09/12 07:09:16;;;;;;;31.38;19.00;;;;;20.00;96125.00;;;;8242242;28;20209;-65
2023/09/12 07:13:23;;;;;;;26.02;18.15;;;;;20.30;96122.00;;;;8241274;28;20212;-65
2023/09/12 07:17:30;;;;;;;33.00;18.60;;;;;20.60;96127.00;;;;8247101;28;20265;-65
2023/09/12 07:21:33;;;;;;;24.65;18.23;;;;;20.80;96119.00;;;;8233498;28;20305;-65
2023/09/12 07:25:39;;;;;;;23.88;17.75;;;;;21.00;96122.00;;;;8245867;28;20675;-65
2023/09/12 07:29:44;;;;;;;24.13;16.20;;;;;21.40;96122.00;;;;8254331;28;20203;-65
2023/09/12 07:33:47;;;;;;;30.15;16.00;;;;;21.80;96126.00;;;;8251154;28;20290;-65
2023/09/12 07:37:50;;;;;;;23.15;15.90;;;;;22.20;96135.00;;;;8238567;28;20203;-65
2023/09/12 07:41:53;;;;;;;21.20;16.17;;;;;22.60;96135.00;;;;8248269;28;20297;-66
2023/09/12 07:45:58;;;;;;;21.98;14.68;;;;;23.00;96136.00;;;;8249734;28;20290;-65
2023/09/12 07:50:02;;;;;;;19.83;14.60;;;;;23.40;96137.00;;;;8241298;28;20293;-65
2023/09/12 07:54:05;;;;;;;22.17;14.20;;;;;23.70;96139.00;;;;8245682;28;20209;-66
2023/09/12 07:58:09;;;;;;;23.13;15.18;;;;;24.00;96136.00;;;;8250439;28;20218;-66
2023/09/12 08:02:15;;;;;;;19.50;13.13;;;;;24.30;96135.00;;;;8262888;28;20249;-66
2023/09/12 08:06:18;;;;;;;19.83;13.50;;;;;24.90;96136.00;;;;8258951;28;20293;-66
2023/09/12 08:10:21;;;;;;;20.35;13.93;;;;;25.40;96148.00;;;;8264979;28;20230;-66
2023/09/12 08:14:27;;;;;;;20.17;13.57;;;;;25.90;96139.00;;;;8257948;28;20202;-66
2023/09/12 08:18:33;;;;;;;19.80;13.50;;;;;26.40;96149.00;;;;8251899;28;20327;-66
2023/09/12 08:22:37;;;;;;;21.65;13.77;;;;;26.90;96147.00;;;;8256029;28;20205;-67
2023/09/12 08:26:43;;;;;;;20.40;13.63;;;;;27.30;96149.00;;;;8254014;28;20648;-67
2023/09/12 08:30:48;;;;;;;18.05;13.40;;;;;27.90;96153.00;;;;8251414;28;20281;-67
2023/09/12 08:34:55;;;;;;;17.48;13.57;;;;;28.60;96156.00;;;;8255917;28;20206;-67
2023/09/12 08:39:00;;;;;;;16.23;13.05;;;;;29.30;96156.00;;;;8260505;28;20227;-67
2023/09/12 08:43:07;;;;;;;17.05;12.65;;;;;29.90;96153.00;;;;8264702;28;20270;-67
2023/09/12 08:47:16;;;;;;;15.93;10.98;;;;;30.50;96155.00;;;;8247114;28;20234;-65
2023/09/12 08:51:23;;;;;;;13.73;11.35;;;;;31.00;96161.00;;;;8243147;28;20199;-65
2023/09/12 08:55:29;;;;;;;15.13;11.38;;;;;31.30;96168.00;;;;8273480;28;20234;-66
2023/09/12 08:59:34;;;;;;;15.75;11.38;;;;;31.80;96163.00;;;;8264568;28;20262;-66
2023/09/12 09:03:46;;;;;;;14.88;11.50;;;;;32.20;96166.00;;;;8256164;28;20257;-66
2023/09/12 09:07:53;;;;;;;13.70;10.57;;;;;32.50;96164.00;;;;8256559;28;20206;-66
2023/09/12 09:11:59;;;;;;;15.60;11.13;;;;;32.70;96168.00;;;;8250598;28;20907;-66
2023/09/12 09:16:21;;;;;;;13.15;11.18;;;;;32.70;96163.00;;;;8250666;28;20284;-67
2023/09/12 09:20:29;;;;;;;18.05;11.18;;;;;32.80;96166.00;;;;8252364;28;20704;-67
2023/09/12 09:24:33;;;;;;;14.07;10.35;;;;;33.10;96162.00;;;;8243825;28;20199;-66
2023/09/12 09:28:39;;;;;;;11.38;10.25;;;;;33.40;96158.00;;;;8244949;28;20195;-66
2023/09/12 09:32:47;;;;;;;13.23;10.25;;;;;33.70;96160.00;;;;8251548;28;20226;-66
2023/09/12 09:36:53;;;;;;;11.38;9.68;;;;;33.80;96159.00;;;;8247581;28;20194;-66
2023/09/12 09:40:58;;;;;;;12.63;9.93;;;;;34.00;96156.00;;;;8268821;28;20238;-67
2023/09/12 09:45:08;;;;;;;13.32;9.43;;;;;34.20;96157.00;;;;8237194;28;20743;-66
2023/09/12 09:49:11;;;;;;;15.13;10.00;;;;;34.50;96150.00;;;;8255652;28;20660;-67
2023/09/12 09:53:15;;;;;;;11.38;8.77;;;;;34.60;96150.00;;;;8260796;28;20239;-67
2023/09/12 09:57:20;;;;;;;9.48;8.57;;;;;34.80;96151.00;;;;8259228;28;20290;-67
2023/09/12 10:01:27;;;;;;;12.43;9.02;;;;;35.00;96148.00;;;;8248384;28;20226;-66
2023/09/12 10:05:34;;;;;;;9.90;9.00;;;;;35.20;96136.00;;;;8258958;28;20205;-67
2023/09/12 10:09:38;;;;;;;8.77;7.80;;;;;35.20;96141.00;;;;8252172;28;20675;-66
2023/09/12 10:13:48;;;;;;;9.85;7.60;;;;;35.20;96137.00;;;;8258413;28;20195;-66
2023/09/12 10:17:58;;;;;;;8.85;7.95;;;;;35.10;96136.00;;;;8261947;28;20690;-66
2023/09/12 10:22:09;;;;;;;9.15;7.55;;;;;34.90;96137.00;;;;8260141;28;20291;-66
2023/09/12 10:26:15;;;;;;;8.45;7.38;;;;;34.70;96129.00;;;;8260421;28;20301;-66
2023/09/12 10:30:19;;;;;;;8.90;7.45;;;;;34.50;96129.00;;;;8260429;28;20210;-66
2023/09/12 10:34:28;;;;;;;9.55;7.70;;;;;34.40;96121.00;;;;8258992;28;20198;-66
2023/09/12 10:38:36;;;;;;;9.20;7.65;;;;;34.30;96131.00;;;;8255086;28;20234;-66
2023/09/12 10:42:40;;;;;;;9.02;8.13;;;;;34.20;96127.00;;;;8257576;28;20218;-66
2023/09/12 10:46:48;;;;;;;11.90;8.07;;;;;34.20;96130.00;;;;8257523;28;20199;-66
2023/09/12 10:50:56;;;;;;;10.30;7.53;;;;;34.10;96118.00;;;;8256879;28;20203;-66
2023/09/12 10:54:59;;;;;;;8.98;7.50;;;;;34.00;96119.00;;;;8255614;28;20218;-66
2023/09/12 10:59:17;;;;;;;11.77;7.45;;;;;33.80;96117.00;;;;8258543;28;20637;-66
2023/09/12 11:03:46;;;;;;;9.70;7.85;;;;;33.80;96116.00;;;;8250124;28;21387;-66
2023/09/12 11:07:49;;;;;;;8.70;7.80;;;;;34.10;96117.00;;;;8240068;28;20209;-66
2023/09/12 11:11:57;;;;;;;9.52;8.30;;;;;34.00;96116.00;;;;8251677;28;20199;-66
2023/09/12 11:16:24;;;;;;;13.05;8.55;;;;;33.80;96120.00;;;;8257944;28;20203;-66
2023/09/12 11:20:52;;;;;;;9.60;7.38;;;;;33.80;96114.00;;;;8244570;28;20830;-66
2023/09/12 11:24:57;;;;;;;8.38;7.32;;;;;33.80;96119.00;;;;8269105;28;20206;-66
2023/09/12 11:29:11;;;;;;;14.15;7.65;;;;;34.20;96106.00;;;;8269992;28;20558;-67
2023/09/12 11:33:17;;;;;;;11.07;8.38;;;;;34.50;96116.00;;;;8253033;28;20290;-67
2023/09/12 11:37:26;;;;;;;11.98;8.13;;;;;34.70;96110.00;;;;8240935;28;20205;-66
2023/09/12 11:41:41;;;;;;;10.43;7.95;;;;;34.60;96108.00;;;;8238279;28;20322;-67
2023/09/12 11:45:48;;;;;;;10.13;7.60;;;;;34.50;96110.00;;;;8256166;28;20288;-67
2023/09/12 11:49:51;;;;;;;9.50;7.88;;;;;34.30;96107.00;;;;8262749;28;20195;-67
2023/09/12 11:53:58;;;;;;;9.80;8.30;;;;;33.90;96104.00;;;;8260130;28;20198;-65
2023/09/12 11:58:07;;;;;;;10.18;7.60;;;;;33.80;96104.00;;;;8252293;28;20286;-68
2023/09/12 12:02:11;;;;;;;9.00;8.10;;;;;33.70;96100.00;;;;8253360;28;20262;-67
2023/09/12 12:06:14;;;;;;;10.73;8.27;;;;;33.60;96106.00;;;;8255642;28;20218;-67
2023/09/12 12:10:19;;;;;;;9.48;7.65;;;;;33.30;96107.00;;;;8255331;28;20229;-67
2023/09/12 12:14:25;;;;;;;11.35;7.78;;;;;33.20;96098.00;;;;8233997;28;20208;-67
2023/09/12 12:18:31;;;;;;;12.82;8.50;;;;;33.30;96095.00;;;;8256867;28;20210;-67
2023/09/12 12:22:37;;;;;;;10.48;8.15;;;;;33.40;96097.00;;;;8249235;28;20226;-67
2023/09/12 12:26:43;;;;;;;8.60;7.72;;;;;33.40;96093.00;;;;8249678;28;20615;-67
2023/09/12 12:30:53;;;;;;;11.38;7.97;;;;;33.40;96094.00;;;;8247649;28;20246;-67
2023/09/12 12:34:57;;;;;;;12.00;7.97;;;;;33.30;96092.00;;;;8250234;28;20209;-67
2023/09/12 12:39:21;;;;;;;9.23;8.05;;;;;33.40;96085.00;;;;8249393;28;20275;-66
2023/09/12 12:43:32;;;;;;;11.85;8.20;;;;;33.40;96084.00;;;;8245844;28;20218;-67
2023/09/12 12:47:35;;;;;;;10.27;8.15;;;;;33.50;96084.00;;;;8251565;28;20230;-67
2023/09/12 12:51:43;;;;;;;9.10;7.82;;;;;33.60;96084.00;;;;8229538;28;20227;-67
2023/09/12 12:55:46;;;;;;;12.73;8.20;;;;;33.60;96078.00;;;;8243259;28;20222;-67
2023/09/12 12:59:52;;;;;;;12.45;8.32;;;;;33.70;96078.00;;;;8237268;28;20333;-67
2023/09/12 13:03:56;;;;;;;10.18;8.55;;;;;33.80;96076.00;;;;8242249;28;20238;-67
2023/09/12 13:07:59;;;;;;;12.20;8.10;;;;;33.80;96068.00;;;;8242285;28;20203;-67
2023/09/12 13:12:08;;;;;;;9.73;8.15;;;;;33.80;96063.00;;;;8244432;28;20206;-67
2023/09/12 13:16:17;;;;;;;11.88;7.82;;;;;33.90;96057.00;;;;8242183;28;20241;-67
2023/09/12 13:20:21;;;;;;;10.65;7.78;;;;;34.10;96054.00;;;;8227779;28;20253;-68
2023/09/12 13:24:26;;;;;;;9.18;7.93;;;;;34.30;96052.00;;;;8224319;28;20217;-68
2023/09/12 13:28:38;;;;;;;12.57;7.55;;;;;34.40;96053.00;;;;8245788;28;20253;-69
2023/09/12 13:32:42;;;;;;;19.55;8.45;;;;;34.30;96061.00;;;;8251980;28;20199;-68
2023/09/12 13:36:45;;;;;;;14.93;7.60;;;;;34.40;96060.00;;;;8250299;28;20618;-68
2023/09/12 13:41:07;;;;;;;11.35;8.02;;;;;34.50;96053.00;;;;8259345;28;20312;-68
2023/09/12 13:45:11;;;;;;;12.63;8.15;;;;;34.70;96044.00;;;;8259494;28;20969;-69
2023/09/12 13:49:15;;;;;;;12.73;8.00;;;;;35.10;96048.00;;;;8250785;28;20302;-68
2023/09/12 13:53:19;;;;;;;9.40;8.38;;;;;35.20;96045.00;;;;8259032;28;20202;-68
2023/09/12 13:57:23;;;;;;;10.40;8.02;;;;;35.00;96057.00;;;;8238499;28;20202;-68
2023/09/12 14:01:26;;;;;;;10.75;7.90;;;;;35.20;96047.00;;;;8253742;28;20277;-68
2023/09/12 14:05:38;;;;;;;13.98;8.48;;;;;35.40;96043.00;;;;8260443;28;20195;-68
2023/09/12 14:09:44;;;;;;;8.50;6.88;;;;;35.70;96034.00;;;;8258160;28;20250;-68
2023/09/12 14:13:49;;;;;;;10.18;7.65;;;;;36.00;96036.00;;;;8264371;28;20203;-68
2023/09/12 14:18:09;;;;;;;11.38;7.63;;;;;36.40;96043.00;;;;8251229;28;20229;-66
2023/09/12 14:22:17;;;;;;;8.57;7.38;;;;;36.50;96040.00;;;;8238438;28;20229;-67
2023/09/12 14:26:21;;;;;;;14.40;7.72;;;;;36.40;96042.00;;;;8243531;28;20639;-68
2023/09/12 14:30:34;;;;;;;13.35;8.20;;;;;36.30;96035.00;;;;8251713;28;20321;-67
2023/09/12 14:34:39;;;;;;;8.52;7.57;;;;;36.30;96038.00;;;;8240271;28;20835;-67
2023/09/12 14:38:46;;;;;;;14.30;8.23;;;;;36.20;96042.00;;;;8262059;28;20199;-67
2023/09/12 14:42:53;;;;;;;13.25;8.20;;;;;36.00;96031.00;;;;8255517;28;20242;-67
2023/09/12 14:46:57;;;;;;;12.15;7.93;;;;;35.90;96025.00;;;;8258595;28;20203;-68
2023/09/12 14:51:03;;;;;;;13.55;7.68;;;;;35.80;96027.00;;;;8252691;28;20229;-68
2023/09/12 14:55:08;;;;;;;9.25;7.50;;;;;35.80;96020.00;;;;8253938;28;20799;-68
2023/09/12 14:59:13;;;;;;;11.68;7.03;;;;;35.80;96021.00;;;;8263403;28;20677;-68
2023/09/12 15:03:18;;;;;;;8.80;7.60;;;;;35.60;96021.00;;;;8255687;28;20326;-68
2023/09/12 15:07:24;;;;;;;12.73;7.30;;;;;35.50;96030.00;;;;8256646;28;20201;-68
2023/09/12 15:11:29;;;;;;;10.88;7.47;;;;;35.40;96025.00;;;;8253179;28;20684;-68
2023/09/12 15:15:35;;;;;;;11.20;7.40;;;;;35.20;96022.00;;;;8257048;28;20199;-68
2023/09/12 15:19:38;;;;;;;8.38;7.50;;;;;35.10;96020.00;;;;8258260;28;20258;-68
2023/09/12 15:23:46;;;;;;;11.73;7.50;;;;;35.20;96015.00;;;;8250024;28;20230;-68
2023/09/12 15:27:52;;;;;;;15.18;7.43;;;;;35.20;96015.00;;;;8253697;28;20217;-68
2023/09/12 15:31:55;;;;;;;10.55;7.72;;;;;35.20;96030.00;;;;8252080;28;20201;-67
2023/09/12 15:36:00;;;;;;;10.80;7.10;;;;;35.20;96022.00;;;;8259168;28;20191;-67
2023/09/12 15:40:06;;;;;;;8.45;7.25;;;;;35.20;96023.00;;;;8252329;28;20237;-67
2023/09/12 15:44:11;;;;;;;10.80;7.07;;;;;35.00;96028.00;;;;8268122;28;20221;-67
2023/09/12 15:48:24;;;;;;;12.40;7.45;;;;;34.90;96024.00;;;;8255298;28;20203;-67
2023/09/12 15:52:28;;;;;;;9.27;6.72;;;;;34.90;96026.00;;;;8264769;28;20206;-67
2023/09/12 15:56:32;;;;;;;11.90;7.60;;;;;34.80;96032.00;;;;8264570;28;20237;-67
2023/09/12 16:00:39;;;;;;;12.20;8.15;;;;;34.70;96023.00;;;;8254787;28;20199;-67
2023/09/12 16:04:46;;;;;;;10.77;7.13;;;;;34.40;96032.00;;;;8258555;28;20222;-67
2023/09/12 16:08:54;;;;;;;11.23;7.55;;;;;34.10;96029.00;;;;8270908;28;20198;-67
2023/09/12 16:13:00;;;;;;;11.68;8.30;;;;;33.80;96029.00;;;;8264528;28;20567;-67
2023/09/12 16:17:07;;;;;;;12.18;7.43;;;;;33.60;96031.00;;;;8256212;28;20209;-67
2023/09/12 16:21:10;;;;;;;11.10;7.78;;;;;33.40;96032.00;;;;8262278;28;20757;-68
2023/09/12 16:25:13;;;;;;;10.40;8.05;;;;;33.30;96026.00;;;;8262667;28;20241;-67
2023/09/12 16:29:16;;;;;;;9.77;7.78;;;;;33.00;96017.00;;;;8257038;28;20664;-67
2023/09/12 16:33:21;;;;;;;12.18;7.93;;;;;32.60;96010.00;;;;8256667;28;20230;-69
2023/09/12 16:37:30;;;;;;;11.07;8.63;;;;;32.20;96003.00;;;;8259889;28;20207;-68
2023/09/12 16:41:34;;;;;;;13.45;7.32;;;;;31.80;96008.00;;;;8258541;28;20321;-67
2023/09/12 16:45:38;;;;;;;13.90;7.68;;;;;31.30;96010.00;;;;8259767;28;20541;-68
2023/09/12 16:49:46;;;;;;;11.18;7.65;;;;;30.90;96005.00;;;;8260337;28;20195;-69
2023/09/12 16:53:53;;;;;;;10.57;7.70;;;;;30.50;96009.00;;;;8255120;28;20199;-68
2023/09/12 16:57:59;;;;;;;13.15;7.72;;;;;30.00;96010.00;;;;8258921;28;20230;-68
2023/09/12 17:02:05;;;;;;;14.27;8.00;;;;;29.50;96004.00;;;;8237318;28;20265;-67
2023/09/12 17:06:11;;;;;;;11.48;8.30;;;;;28.90;96003.00;;;;8255917;28;20218;-67
2023/09/12 17:10:14;;;;;;;11.63;8.05;;;;;28.30;95999.00;;;;8249487;28;20285;-68
2023/09/12 17:14:17;;;;;;;13.25;7.43;;;;;27.80;96004.00;;;;8257499;28;20216;-67
2023/09/12 17:18:21;;;;;;;17.05;8.75;;;;;27.50;95999.00;;;;8256073;28;20218;-67
2023/09/12 17:22:28;;;;;;;13.23;8.57;;;;;27.30;95988.00;;;;8265278;28;20230;-67
2023/09/12 17:26:34;;;;;;;12.75;8.30;;;;;27.20;95995.00;;;;8252493;28;20199;-64
2023/09/12 17:30:39;;;;;;;16.00;9.88;;;;;27.10;95988.00;;;;8255752;28;20253;-65
2023/09/12 17:34:44;;;;;;;12.55;8.75;;;;;27.10;95989.00;;;;8249771;28;20191;-65
2023/09/12 17:38:49;;;;;;;13.30;8.75;;;;;27.00;95996.00;;;;8252585;28;20413;-67
2023/09/12 17:42:52;;;;;;;16.30;8.88;;;;;26.90;95998.00;;;;8250727;28;20849;-66
2023/09/12 17:46:56;;;;;;;15.88;9.30;;;;;26.80;96013.00;;;;8227929;28;20196;-67
2023/09/12 17:51:02;;;;;;;12.40;9.07;;;;;26.80;96028.00;;;;8252128;28;20713;-67
2023/09/12 17:55:10;;;;;;;20.27;9.55;;;;;26.70;96031.00;;;;8248867;28;20933;-66
2023/09/12 17:59:20;;;;;;;12.90;9.00;;;;;26.70;96043.00;;;;8252284;28;20199;-65
2023/09/12 18:03:32;;;;;;;14.63;9.13;;;;;26.60;96049.00;;;;8252265;28;20268;-67
2023/09/12 18:07:36;;;;;;;12.23;9.18;;;;;26.40;96065.00;;;;8247859;28;20199;-67
2023/09/12 18:11:45;;;;;;;14.88;10.10;;;;;26.10;96072.00;;;;8253270;28;20207;-68
2023/09/12 18:15:49;;;;;;;16.48;10.30;;;;;25.80;96070.00;;;;8251123;28;20439;-67
2023/09/12 18:19:52;;;;;;;14.73;10.02;;;;;25.60;96072.00;;;;8256069;28;20702;-67
2023/09/12 18:23:55;;;;;;;11.90;9.90;;;;;25.30;96069.00;;;;8257347;28;20314;-68
2023/09/12 18:28:06;;;;;;;17.38;10.32;;;;;25.00;96067.00;;;;8264101;28;20281;-67
2023/09/12 18:32:11;;;;;;;13.43;9.60;;;;;24.70;96082.00;;;;8258482;28;20206;-71
2023/09/12 18:36:17;;;;;;;21.15;10.23;;;;;24.50;96092.00;;;;8262249;28;20221;-68
2023/09/12 18:40:22;;;;;;;11.48;9.82;;;;;24.40;96091.00;;;;8222446;28;20203;-67
2023/09/12 18:44:30;;;;;;;17.08;10.02;;;;;24.30;96099.00;;;;8258718;28;20225;-67
2023/09/12 18:48:35;;;;;;;15.23;10.52;;;;;24.20;96097.00;;;;8250465;28;20202;-67
2023/09/12 18:52:39;;;;;;;15.80;10.60;;;;;24.10;96097.00;;;;8237863;28;20810;-67
2023/09/12 18:57:12;;;;;;;16.25;11.43;;;;;24.00;96085.00;;;;8256648;28;20195;-67
2023/09/12 19:01:16;;;;;;;16.65;10.88;;;;;23.90;96083.00;;;;8253843;28;20293;-66
2023/09/12 19:05:20;;;;;;;14.70;10.68;;;;;23.80;96075.00;;;;8258312;28;20235;-67
2023/09/12 19:09:29;;;;;;;12.73;10.75;;;;;23.70;96072.00;;;;8261705;28;20206;-67
2023/09/12 19:13:32;;;;;;;14.82;10.63;;;;;23.60;96084.00;;;;8264914;28;20637;-67
2023/09/12 19:17:42;;;;;;;16.05;10.32;;;;;23.70;96087.00;;;;8248512;28;20231;-67
2023/09/12 19:21:45;;;;;;;14.32;10.73;;;;;23.60;96087.00;;;;8255590;28;20199;-67
2023/09/12 19:25:48;;;;;;;18.08;11.02;;;;;23.60;96089.00;;;;8251974;28;20661;-67
2023/09/12 19:29:54;;;;;;;16.63;11.32;;;;;23.50;96083.00;;;;8253328;28;20202;-66
2023/09/12 19:34:03;;;;;;;16.73;10.90;;;;;23.40;96078.00;;;;8256346;28;20206;-67
2023/09/12 19:38:06;;;;;;;15.07;10.32;;;;;23.30;96086.00;;;;8256374;28;20742;-67
2023/09/12 19:42:10;;;;;;;16.77;10.35;;;;;23.30;96091.00;;;;8253524;28;20203;-68
2023/09/12 19:46:13;;;;;;;21.85;11.85;;;;;23.20;96100.00;;;;8250132;28;20242;-66
2023/09/12 19:50:17;;;;;;;17.83;11.50;;;;;23.20;96096.00;;;;8257852;28;20209;-66
2023/09/12 19:54:21;;;;;;;16.17;11.65;;;;;23.20;96095.00;;;;8256316;28;20211;-66
2023/09/12 19:58:26;;;;;;;16.20;11.07;;;;;23.20;96098.00;;;;8250640;28;20202;-66
2023/09/12 20:02:29;;;;;;;17.27;11.02;;;;;23.10;96091.00;;;;8247788;28;20226;-66
2023/09/12 20:06:36;;;;;;;17.65;10.93;;;;;23.10;96083.00;;;;8251557;28;20231;-67
2023/09/12 20:10:39;;;;;;;18.17;10.68;;;;;23.10;96089.00;;;;8260319;28;20344;-67